Time;durP1;ratioP1;P1;durP2;ratioP2;P2;SDS_P1;SDS_P2;PMS_P1;PMS_P2;Temp;Humidity;BMP_temperature;BMP_pressure;BME280_temperature;BME280_humidity;BME280_pressure;Samples;Min_cycle;Max_cycle;Signal;HPM_P1;HPM_P2
2023/08/20 00:01:56;;;;;;;7.55;6.97;;;;;;;20.25;100.00;101364.16;6202245;23;20026;-68
2023/08/20 00:04:26;;;;;;;8.32;7.72;;;;;;;21.19;100.00;101510.22;6203983;23;20036;-69
2023/08/20 00:06:52;;;;;;;8.27;7.68;;;;;;;21.35;100.00;101518.66;6201702;23;20449;-68
2023/08/20 00:09:19;;;;;;;8.60;7.80;;;;;;;20.99;100.00;101456.72;6176755;23;20032;-69
2023/08/20 00:11:45;;;;;;;8.25;7.63;;;;;;;21.29;100.00;101506.66;6201516;23;20016;-68
2023/08/20 00:14:15;;;;;;;8.48;7.78;;;;;;;21.34;100.00;101503.59;6181839;23;20694;-68
2023/08/20 00:16:43;;;;;;;8.98;8.18;;;;;;;21.16;100.00;101481.13;6174844;23;20039;-68
2023/08/20 00:19:11;;;;;;;9.05;8.30;;;;;;;21.15;100.00;101490.97;6148214;23;20034;-68
2023/08/20 00:21:42;;;;;;;7.93;7.25;;;;;;;21.06;100.00;101476.56;6173812;23;20021;-68
2023/08/20 00:24:09;;;;;;;8.70;7.90;;;;;;;20.20;100.00;101368.16;6169591;23;20452;-68
2023/08/20 00:26:36;;;;;;;7.47;6.88;;;;;;;20.99;100.00;101501.22;6202612;23;20083;-68
2023/08/20 00:29:03;;;;;;;8.32;7.70;;;;;;;20.91;100.00;101492.03;6197578;23;20028;-68
2023/08/20 00:31:30;;;;;;;8.68;7.78;;;;;;;20.86;100.00;101470.22;6199618;23;20015;-68
2023/08/20 00:33:56;;;;;;;8.60;7.82;;;;;;;21.05;100.00;101508.72;6199306;23;20034;-68
2023/08/20 00:36:32;;;;;;;8.90;7.35;;;;;;;20.90;100.00;101503.69;6201089;23;20053;-70
2023/08/20 00:38:59;;;;;;;8.00;7.40;;;;;;;20.80;100.00;101509.91;6201092;23;20051;-68
2023/08/20 00:41:25;;;;;;;8.27;7.60;;;;;;;20.85;100.00;101523.72;6203652;22;20288;-68
2023/08/20 00:43:52;;;;;;;8.10;7.25;;;;;;;20.76;100.00;101503.13;6204393;23;20028;-68
2023/08/20 00:46:18;;;;;;;8.10;7.32;;;;;;;20.86;100.00;101517.41;6175821;23;20028;-68
2023/08/20 00:48:45;;;;;;;8.45;7.75;;;;;;;20.82;100.00;101521.31;6203232;23;20087;-69
2023/08/20 00:51:11;;;;;;;8.13;7.43;;;;;;;20.88;100.00;101526.13;6172954;23;22820;-69
2023/08/20 00:53:38;;;;;;;8.40;7.63;;;;;;;20.86;100.00;101520.06;6171086;23;20537;-68
2023/08/20 00:56:05;;;;;;;8.88;8.00;;;;;;;19.52;100.00;101309.69;6202565;23;20027;-68
2023/08/20 00:58:31;;;;;;;8.38;7.68;;;;;;;20.44;100.00;101455.94;6173513;23;20008;-68
2023/08/20 01:00:58;;;;;;;9.43;8.52;;;;;;;20.51;100.00;101462.47;6203215;23;20103;-69
2023/08/20 01:03:24;;;;;;;8.30;7.50;;;;;;;19.66;100.00;101319.22;6177403;23;20935;-69
2023/08/20 01:06:01;;;;;;;8.48;7.78;;;;;;;20.65;100.00;101493.38;6204660;23;20623;-69
2023/08/20 01:08:39;;;;;;;8.38;7.43;;;;;;;20.46;100.00;101475.31;6174396;23;20710;-69
2023/08/20 01:11:37;;;;;;;8.00;7.40;;;;;;;20.69;100.00;101502.81;6203441;23;20108;-68
2023/08/20 01:14:15;;;;;;;8.75;8.05;;;;;;;20.70;100.00;101518.66;6198518;23;20052;-68
2023/08/20 01:16:42;;;;;;;9.15;7.82;;;;;;;20.34;100.00;101429.16;6199296;23;20083;-69
2023/08/20 01:19:16;;;;;;;9.65;8.75;;;;;;;20.54;100.00;101467.53;6202795;23;20466;-68
2023/08/20 01:21:54;;;;;;;7.63;7.03;;;;;;;20.67;100.00;101489.59;6150762;23;20116;-69
2023/08/20 01:25:08;;;;;;;8.13;7.43;;;;;;;19.76;100.00;101328.19;6202129;23;20068;-69
2023/08/20 01:27:56;;;;;;;9.13;7.65;;;;;;;20.56;100.00;101468.25;6153286;23;20088;-69
2023/08/20 01:30:24;;;;;;;8.18;7.38;;;;;;;20.22;100.00;101431.00;6193261;23;20036;-68
2023/08/20 01:32:54;;;;;;;8.65;7.85;;;;;;;20.30;100.00;101484.53;6202346;23;20024;-68
2023/08/20 01:35:25;;;;;;;10.02;8.20;;;;;;;18.98;100.00;101313.06;6177902;23;20027;-68
2023/08/20 01:37:51;;;;;;;8.32;7.68;;;;;;;20.26;100.00;101508.91;6199972;23;20027;-69
2023/08/20 01:40:18;;;;;;;8.45;7.72;;;;;;;19.89;100.00;101450.59;6203287;23;20058;-68
2023/08/20 01:42:44;;;;;;;8.82;7.72;;;;;;;19.80;100.00;101481.44;6202967;23;20027;-68
2023/08/20 01:45:11;;;;;;;8.70;7.93;;;;;;;19.85;100.00;101489.94;6200830;23;20044;-69
2023/08/20 01:47:37;;;;;;;9.60;7.90;;;;;;;20.03;100.00;101535.59;6202882;23;20043;-69
2023/08/20 01:50:05;;;;;;;8.88;8.15;;;;;;;20.11;100.00;101537.66;6196761;23;20028;-69
2023/08/20 01:52:33;;;;;;;8.40;7.53;;;;;;;20.26;100.00;101533.75;6170673;23;20657;-69
2023/08/20 01:54:59;;;;;;;8.88;7.93;;;;;;;19.34;100.00;101397.16;6200605;23;20633;-69
2023/08/20 01:57:26;;;;;;;8.48;7.68;;;;;;;20.39;100.00;101528.31;6151456;23;20047;-70
2023/08/20 01:59:52;;;;;;;13.57;8.48;;;;;;;20.24;100.00;101519.69;6203400;23;20087;-69
2023/08/20 02:02:20;;;;;;;8.98;8.05;;;;;;;20.10;100.00;101539.44;6204234;23;20008;-69
2023/08/20 02:04:46;;;;;;;8.55;7.75;;;;;;;18.17;100.00;101262.50;6173474;23;20087;-69
2023/08/20 02:07:13;;;;;;;8.45;7.80;;;;;;;20.19;100.00;101569.88;6170527;23;20028;-68
2023/08/20 02:09:39;;;;;;;8.13;7.53;;;;;;;20.28;100.00;101553.13;6203818;23;20027;-70
2023/08/20 02:12:07;;;;;;;9.00;8.20;;;;;;;19.18;100.00;101415.28;6202050;23;20076;-69
2023/08/20 02:14:35;;;;;;;11.00;8.25;;;;;;;19.69;100.00;101497.41;6201298;23;20023;-69
2023/08/20 02:17:02;;;;;;;9.40;8.43;;;;;;;20.16;100.00;101582.59;6202735;23;20020;-69
2023/08/20 02:19:29;;;;;;;9.15;8.10;;;;;;;20.15;100.00;101579.09;6199344;23;20023;-69
2023/08/20 02:21:55;;;;;;;9.07;8.02;;;;;;;20.15;100.00;101556.91;6200603;23;20020;-68
2023/08/20 02:24:22;;;;;;;8.85;8.05;;;;;;;19.77;100.00;101483.53;6182053;23;20024;-70
2023/08/20 02:26:49;;;;;;;8.65;7.80;;;;;;;19.68;100.00;101507.19;6196028;23;20098;-68
2023/08/20 02:29:15;;;;;;;8.25;7.55;;;;;;;19.88;100.00;101542.13;6171495;23;20675;-69
2023/08/20 02:31:42;;;;;;;9.05;8.25;;;;;;;20.01;100.00;101577.50;6202761;23;20004;-68
2023/08/20 02:34:08;;;;;;;8.88;8.07;;;;;;;19.34;100.00;101455.72;6179873;23;20109;-69
2023/08/20 02:36:35;;;;;;;9.18;8.35;;;;;;;19.88;100.00;101507.47;6207244;23;20523;-68
2023/08/20 02:39:03;;;;;;;9.43;8.57;;;;;;;20.35;100.00;101590.84;6180431;23;20052;-69
2023/08/20 02:41:30;;;;;;;9.70;8.70;;;;;;;20.60;100.00;101597.72;6204546;23;20039;-69
2023/08/20 02:43:56;;;;;;;12.43;9.57;;;;;;;20.76;100.00;101586.69;6179779;23;20025;-68
2023/08/20 02:46:23;;;;;;;9.77;8.52;;;;;;;20.74;100.00;101580.63;6201828;23;20088;-69
2023/08/20 02:48:50;;;;;;;10.18;8.77;;;;;;;20.41;100.00;101558.34;6179344;23;20472;-68
2023/08/20 02:51:16;;;;;;;9.80;9.00;;;;;;;19.51;100.00;101410.00;6202656;23;20447;-68
2023/08/20 02:53:43;;;;;;;10.73;8.43;;;;;;;19.25;100.00;101372.13;6153043;23;20032;-69
2023/08/20 02:56:10;;;;;;;10.38;9.27;;;;;;;20.27;100.00;101556.78;6177452;23;20115;-69
2023/08/20 02:58:36;;;;;;;8.65;7.80;;;;;;;20.49;100.00;101565.75;6210224;23;20087;-68
2023/08/20 03:01:03;;;;;;;9.75;8.75;;;;;;;20.20;100.00;101560.06;6179769;23;20256;-68
2023/08/20 03:03:29;;;;;;;9.65;8.70;;;;;;;20.12;100.00;101550.00;6204016;23;20409;-68
2023/08/20 03:05:58;;;;;;;9.75;8.80;;;;;;;19.19;100.00;101411.69;6204803;23;20019;-68
2023/08/20 03:08:25;;;;;;;11.68;9.52;;;;;;;19.27;100.00;101425.22;6203922;23;20087;-69
2023/08/20 03:10:52;;;;;;;9.65;8.63;;;;;;;20.22;100.00;101588.28;6212985;23;20028;-68
2023/08/20 03:13:18;;;;;;;10.55;8.73;;;;;;;20.16;100.00;101583.44;6207723;23;20031;-68
2023/08/20 03:15:45;;;;;;;10.50;9.30;;;;;;;19.99;100.00;101559.94;6210599;23;20020;-68
2023/08/20 03:18:11;;;;;;;11.02;9.85;;;;;;;20.24;100.00;101593.50;6210167;23;20042;-68
2023/08/20 03:20:38;;;;;;;10.00;9.00;;;;;;;20.17;100.00;101573.63;6175533;23;20021;-69
2023/08/20 03:23:04;;;;;;;10.80;9.45;;;;;;;20.10;100.00;101559.94;6177526;23;20055;-68
2023/08/20 03:25:30;;;;;;;9.50;8.50;;;;;;;20.14;100.00;101577.38;6179992;23;20028;-69
2023/08/20 03:27:57;;;;;;;9.85;8.85;;;;;;;20.07;100.00;101566.34;6202654;23;20038;-69
2023/08/20 03:30:23;;;;;;;9.70;8.80;;;;;;;20.21;100.00;101575.09;6176359;23;20080;-68
2023/08/20 03:32:50;;;;;;;11.38;8.73;;;;;;;20.17;100.00;101568.31;6179657;23;20614;-68
2023/08/20 03:35:16;;;;;;;9.82;7.88;;;;;;;20.33;100.00;101585.63;6203789;23;20051;-69
2023/08/20 03:37:43;;;;;;;9.15;8.35;;;;;;;20.16;100.00;101540.78;6201319;23;20095;-69
2023/08/20 03:40:10;;;;;;;9.63;8.65;;;;;;;19.84;100.00;101485.56;6204819;23;20023;-69
2023/08/20 03:42:39;;;;;;;11.07;9.23;;;;;;;20.08;100.00;101536.06;6180677;23;20075;-69
2023/08/20 03:45:06;;;;;;;9.13;8.23;;;;;;;19.38;100.00;101435.03;6207675;23;20024;-68
2023/08/20 03:47:32;;;;;;;9.57;8.68;;;;;;;20.00;100.00;101548.31;6204063;23;20055;-68
2023/08/20 03:49:59;;;;;;;11.80;9.23;;;;;;;19.94;100.00;101549.63;6175988;23;20593;-69
2023/08/20 03:52:26;;;;;;;12.60;8.55;;;;;;;20.04;100.00;101566.59;6206117;23;20026;-69
2023/08/20 03:54:53;;;;;;;11.63;8.63;;;;;;;18.50;100.00;101311.38;6176202;23;20026;-69
2023/08/20 03:57:19;;;;;;;8.82;8.13;;;;;;;19.56;100.00;101516.13;6202205;23;20030;-68
2023/08/20 03:59:45;;;;;;;9.70;8.40;;;;;;;19.93;100.00;101582.56;6181872;23;20481;-68
2023/08/20 04:02:12;;;;;;;10.27;8.60;;;;;;;19.62;100.00;101550.28;6175506;23;20501;-69
2023/08/20 04:04:39;;;;;;;9.25;8.35;;;;;;;19.90;100.00;101593.47;6207568;23;20030;-68
2023/08/20 04:07:06;;;;;;;9.10;8.30;;;;;;;19.94;100.00;101621.56;6176277;23;20043;-68
2023/08/20 04:09:33;;;;;;;9.13;8.20;;;;;;;19.79;100.00;101601.44;6177723;23;20060;-70
2023/08/20 04:12:00;;;;;;;9.80;8.80;;;;;;;18.79;100.00;101444.81;6172015;23;20582;-68
2023/08/20 04:14:29;;;;;;;9.00;8.20;;;;;;;19.70;100.00;101571.88;6180026;23;20020;-70
2023/08/20 04:16:59;;;;;;;8.85;7.95;;;;;;;18.80;100.00;101443.00;6183826;23;20051;-69
2023/08/20 04:19:26;;;;;;;9.40;8.38;;;;;;;19.84;100.00;101600.09;6185981;23;20349;-69
2023/08/20 04:21:52;;;;;;;9.57;8.70;;;;;;;19.31;100.00;101527.81;6202185;23;20028;-68
2023/08/20 04:24:19;;;;;;;9.00;8.23;;;;;;;19.75;100.00;101600.00;6179479;23;20024;-68
2023/08/20 04:26:45;;;;;;;9.27;8.30;;;;;;;19.29;100.00;101532.41;6201296;23;20349;-70
2023/08/20 04:29:15;;;;;;;9.20;8.30;;;;;;;19.40;100.00;101575.03;6202330;23;20035;-68
2023/08/20 04:31:41;;;;;;;9.15;8.20;;;;;;;19.20;100.00;101547.25;6202049;23;20493;-69
2023/08/20 04:34:08;;;;;;;8.80;8.00;;;;;;;19.51;100.00;101596.38;6202601;23;20060;-68
2023/08/20 04:36:34;;;;;;;9.65;8.68;;;;;;;19.10;100.00;101544.47;6166774;23;20347;-68
2023/08/20 04:39:02;;;;;;;9.00;8.20;;;;;;;19.57;100.00;101620.84;6206517;23;20057;-68
2023/08/20 04:41:28;;;;;;;8.98;8.10;;;;;;;19.52;100.00;101597.22;6203860;23;20655;-69
2023/08/20 04:43:55;;;;;;;13.90;8.48;;;;;;;19.27;100.00;101555.63;6202529;23;20020;-68
2023/08/20 04:46:22;;;;;;;9.02;8.27;;;;;;;18.72;100.00;101483.41;6202358;23;20012;-68
2023/08/20 04:48:48;;;;;;;8.30;7.60;;;;;;;19.53;100.00;101634.38;6208472;23;20044;-68
2023/08/20 04:51:15;;;;;;;9.48;8.50;;;;;;;19.06;100.00;101564.28;6202521;23;20635;-69
2023/08/20 04:53:41;;;;;;;9.15;8.25;;;;;;;19.38;100.00;101616.88;6177937;23;20012;-69
2023/08/20 04:56:08;;;;;;;9.02;8.13;;;;;;;19.62;100.00;101565.41;6153869;23;20031;-68
2023/08/20 04:58:34;;;;;;;9.65;8.63;;;;;;;20.26;100.00;101626.19;6207343;23;20077;-68
2023/08/20 05:01:01;;;;;;;12.27;8.60;;;;;;;20.36;100.00;101618.34;6172251;23;20087;-68
2023/08/20 05:03:28;;;;;;;9.65;8.65;;;;;;;20.56;100.00;101622.91;6178039;23;20043;-68
2023/08/20 05:05:55;;;;;;;12.00;9.50;;;;;;;19.79;100.00;101485.09;6205819;23;20098;-68
2023/08/20 05:08:22;;;;;;;11.32;8.95;;;;;;;20.04;100.00;101509.78;6199906;23;20050;-69
2023/08/20 05:10:50;;;;;;;10.15;8.50;;;;;;;19.20;100.00;101342.34;6197611;23;20021;-70
2023/08/20 05:13:20;;;;;;;8.77;7.97;;;;;;;21.09;100.00;101591.09;6155454;23;20032;-70
2023/08/20 05:15:47;;;;;;;13.02;7.95;;;;;;;21.20;100.00;101602.69;6199681;23;20036;-72
2023/08/20 05:18:16;;;;;;;9.15;8.23;;;;;;;21.17;100.00;101576.22;6149777;23;20028;-70
2023/08/20 05:20:46;;;;;;;8.73;7.93;;;;;;;20.79;100.00;101487.72;6207298;23;20020;-69
2023/08/20 05:23:12;;;;;;;8.95;8.15;;;;;;;21.59;100.00;101555.81;6176414;23;20069;-69
2023/08/20 05:25:39;;;;;;;12.27;7.82;;;;;;;21.28;100.00;101501.44;6203058;23;20084;-69
2023/08/20 05:28:05;;;;;;;13.85;9.30;;;;;;;21.42;100.00;101543.00;6175763;23;20024;-69
2023/08/20 05:30:33;;;;;;;10.43;9.00;;;;;;;21.27;100.00;101519.28;6205661;23;20028;-68
2023/08/20 05:33:00;;;;;;;8.30;7.50;;;;;;;20.68;100.00;101413.06;6163357;23;20055;-69
2023/08/20 05:35:28;;;;;;;9.23;8.45;;;;;;;20.76;100.00;101415.09;6200952;23;20486;-69
2023/08/20 05:37:54;;;;;;;10.73;9.07;;;;;;;21.11;100.00;101457.50;6174294;23;20050;-69
2023/08/20 05:40:21;;;;;;;9.88;8.10;;;;;;;21.88;100.00;101537.25;6203713;23;20032;-69
2023/08/20 05:42:48;;;;;;;9.82;8.48;;;;;;;21.00;100.00;101354.31;6204867;23;20027;-69
2023/08/20 05:45:17;;;;;;;11.75;8.55;;;;;;;21.06;100.00;101329.78;6180719;23;20023;-69
2023/08/20 05:47:46;;;;;;;7.85;7.15;;;;;;;21.24;99.43;101273.94;6176883;23;20040;-69
2023/08/20 05:50:13;;;;;;;9.30;8.18;;;;;;;22.61;97.51;101454.16;6201212;23;20028;-68
2023/08/20 05:52:40;;;;;;;10.25;8.90;;;;;;;22.46;96.75;101442.19;6148985;23;20027;-69
2023/08/20 05:55:07;;;;;;;9.90;8.90;;;;;;;21.04;96.77;101224.97;6173533;23;20031;-69
2023/08/20 05:57:36;;;;;;;10.35;8.35;;;;;;;21.28;96.60;101270.00;6150286;23;20009;-69
2023/08/20 06:00:04;;;;;;;9.70;8.70;;;;;;;21.75;97.45;101368.31;6169653;23;20078;-69
2023/08/20 06:02:31;;;;;;;8.25;7.30;;;;;;;22.00;97.18;101396.34;6176154;23;20023;-69
2023/08/20 06:04:57;;;;;;;9.25;8.20;;;;;;;21.35;96.15;101294.34;6177496;23;20013;-69
2023/08/20 06:07:24;;;;;;;8.75;7.72;;;;;;;21.25;96.15;101253.44;6197453;23;20028;-69
2023/08/20 06:09:51;;;;;;;7.95;7.25;;;;;;;22.40;95.92;101440.91;6205893;23;20013;-71
2023/08/20 06:12:17;;;;;;;9.60;8.60;;;;;;;21.68;96.31;101308.38;6179745;23;20027;-69
2023/08/20 06:14:44;;;;;;;8.98;8.23;;;;;;;22.37;95.07;101406.44;6207370;23;20083;-68
2023/08/20 06:17:11;;;;;;;9.75;8.85;;;;;;;21.67;93.91;101288.84;6207831;23;20024;-68
2023/08/20 06:19:37;;;;;;;11.32;9.20;;;;;;;22.47;93.79;101420.66;6207142;23;20478;-69
2023/08/20 06:22:04;;;;;;;12.98;8.57;;;;;;;21.74;93.70;101304.31;6206363;23;20035;-69
2023/08/20 06:24:31;;;;;;;16.08;8.82;;;;;;;22.37;94.29;101421.59;6175666;23;20020;-69
2023/08/20 06:26:58;;;;;;;10.98;8.75;;;;;;;22.54;93.10;101425.44;6182569;23;20088;-69
2023/08/20 06:29:24;;;;;;;10.70;9.32;;;;;;;22.62;92.88;101418.38;6205124;23;20363;-69
2023/08/20 06:31:51;;;;;;;20.38;8.95;;;;;;;22.24;91.97;101315.78;6204271;23;20036;-68
2023/08/20 06:34:17;;;;;;;13.40;9.10;;;;;;;22.64;92.19;101397.69;6201130;23;20024;-68
2023/08/20 06:36:44;;;;;;;9.98;8.90;;;;;;;22.78;91.99;101415.16;6208072;23;20052;-69
2023/08/20 06:39:10;;;;;;;9.65;8.65;;;;;;;22.94;91.73;101419.91;6205408;23;20012;-69
2023/08/20 06:41:37;;;;;;;10.10;9.05;;;;;;;23.08;90.14;101391.88;6178089;23;20024;-69
2023/08/20 06:44:07;;;;;;;10.50;9.00;;;;;;;23.02;90.83;101397.81;6206687;23;20020;-69
2023/08/20 06:46:33;;;;;;;9.82;8.80;;;;;;;22.11;89.51;101224.31;6206480;23;20083;-69
2023/08/20 06:49:00;;;;;;;12.88;9.40;;;;;;;22.27;88.17;101221.06;6205320;23;20055;-69
2023/08/20 06:51:28;;;;;;;10.93;8.63;;;;;;;22.89;87.61;101309.75;6187744;23;20081;-67
2023/08/20 06:53:55;;;;;;;9.73;8.23;;;;;;;22.20;88.01;101194.03;6184137;23;20067;-69
2023/08/20 06:56:21;;;;;;;9.68;8.65;;;;;;;23.39;87.31;101378.25;6176344;23;20080;-69
2023/08/20 06:58:48;;;;;;;9.98;8.98;;;;;;;23.28;87.20;101371.25;6201852;23;20083;-69
2023/08/20 07:01:15;;;;;;;12.98;9.70;;;;;;;23.43;87.03;101387.66;6185064;23;21641;-68
2023/08/20 07:03:43;;;;;;;10.30;9.20;;;;;;;22.75;87.03;101292.31;6209629;23;20023;-69
2023/08/20 07:06:10;;;;;;;9.80;8.80;;;;;;;23.52;88.16;101399.34;6208016;23;20056;-70
2023/08/20 07:08:39;;;;;;;13.95;9.13;;;;;;;23.62;87.32;101401.00;6206634;23;20023;-69
2023/08/20 07:11:06;;;;;;;12.02;9.02;;;;;;;23.09;87.19;101299.84;6205009;23;20482;-68
2023/08/20 07:13:33;;;;;;;10.02;8.07;;;;;;;23.77;84.38;101344.19;6183352;23;20109;-69
2023/08/20 07:16:00;;;;;;;11.43;8.65;;;;;;;24.16;84.90;101384.22;6179022;23;20099;-70
2023/08/20 07:18:27;;;;;;;12.05;9.13;;;;;;;24.03;83.31;101326.41;6167688;23;20028;-70
2023/08/20 07:20:56;;;;;;;14.68;9.98;;;;;;;23.74;83.88;101283.72;6205190;23;20092;-70
2023/08/20 07:23:23;;;;;;;10.45;9.38;;;;;;;24.38;82.82;101361.44;6177039;23;20052;-70
2023/08/20 07:25:52;;;;;;;12.57;9.93;;;;;;;23.90;83.41;101325.97;6203492;23;20042;-70
2023/08/20 07:28:55;;;;;;;13.48;9.35;;;;;;;24.37;82.16;101351.69;6156656;23;20688;-69
2023/08/20 07:31:05;;;;;;;11.23;8.77;;;;;;;24.28;82.07;101323.97;6202476;23;20095;-69
2023/08/20 07:33:31;;;;;;;11.50;9.20;;;;;;;23.61;82.22;101209.03;6176077;23;20128;-69
2023/08/20 07:36:04;;;;;;;16.80;10.13;;;;;;;24.40;82.09;101321.91;6194664;23;21400;-68
2023/08/20 07:38:33;;;;;;;12.85;9.25;;;;;;;24.67;81.50;101353.16;6204165;23;20501;-68
2023/08/20 07:41:02;;;;;;;12.13;9.13;;;;;;;24.15;81.36;101251.94;6180259;23;20223;-69
2023/08/20 07:43:29;;;;;;;10.93;9.82;;;;;;;24.19;80.29;101223.81;6174020;23;20056;-69
2023/08/20 07:45:55;;;;;;;13.38;9.90;;;;;;;24.75;80.78;101353.19;6204126;23;20020;-69
2023/08/20 07:48:22;;;;;;;13.05;9.75;;;;;;;24.87;80.42;101351.09;6174284;23;20028;-69
2023/08/20 07:50:48;;;;;;;16.25;10.20;;;;;;;24.20;80.09;101225.50;6203428;23;20223;-69
2023/08/20 07:53:15;;;;;;;9.98;8.98;;;;;;;25.22;79.73;101368.16;6202409;23;20051;-70
2023/08/20 07:55:41;;;;;;;11.40;9.00;;;;;;;25.51;78.38;101361.56;6180405;23;20028;-72
2023/08/20 07:58:08;;;;;;;13.95;9.85;;;;;;;24.87;78.04;101257.97;6174970;23;20012;-69
2023/08/20 08:00:35;;;;;;;14.52;10.13;;;;;;;25.12;78.08;101313.63;6202725;23;20517;-70
2023/08/20 08:03:02;;;;;;;12.07;10.45;;;;;;;24.40;81.35;101305.78;6179909;23;20020;-69
2023/08/20 08:05:28;;;;;;;14.05;11.45;;;;;;;24.69;82.32;101402.16;6201096;23;20032;-69
2023/08/20 08:07:55;;;;;;;13.57;9.95;;;;;;;23.83;82.73;101273.94;6184799;23;20036;-69
2023/08/20 08:10:22;;;;;;;14.00;11.13;;;;;;;23.97;82.76;101261.84;6199036;23;20037;-70
2023/08/20 08:12:48;;;;;;;12.25;9.52;;;;;;;24.49;82.05;101351.28;6173091;23;20503;-69
2023/08/20 08:15:15;;;;;;;12.35;10.35;;;;;;;23.80;82.29;101236.75;6201433;23;20016;-68
2023/08/20 08:17:41;;;;;;;10.45;9.35;;;;;;;24.96;82.47;101411.94;6203446;22;20022;-67
2023/08/20 08:20:08;;;;;;;12.10;9.32;;;;;;;25.00;82.98;101431.25;6203907;23;20056;-68
2023/08/20 08:22:34;;;;;;;14.35;9.65;;;;;;;25.24;81.14;101407.28;6204309;23;20103;-68
2023/08/20 08:25:01;;;;;;;15.75;10.20;;;;;;;24.71;81.03;101341.09;6146663;23;20075;-68
2023/08/20 08:27:30;;;;;;;10.65;9.48;;;;;;;25.09;81.14;101403.44;6201754;23;20046;-68
2023/08/20 08:29:57;;;;;;;12.65;9.98;;;;;;;24.99;81.30;101387.44;6173850;23;20795;-69
2023/08/20 08:32:24;;;;;;;10.68;9.30;;;;;;;25.19;81.52;101422.16;6202877;23;20085;-68
2023/08/20 08:34:50;;;;;;;10.95;9.23;;;;;;;25.43;80.17;101383.84;6200966;23;20680;-68
2023/08/20 08:37:17;;;;;;;17.35;9.52;;;;;;;25.78;79.33;101395.41;6203691;23;20020;-68
2023/08/20 08:39:43;;;;;;;13.20;9.88;;;;;;;24.86;75.88;101169.56;6201277;23;20079;-68
2023/08/20 08:42:11;;;;;;;11.68;9.05;;;;;;;25.82;73.94;101279.31;6180990;23;20027;-69
2023/08/20 08:44:38;;;;;;;10.55;9.48;;;;;;;25.47;72.60;101173.75;6203099;23;20020;-67
2023/08/20 08:47:05;;;;;;;11.35;9.60;;;;;;;26.01;73.69;101290.78;6174160;23;20031;-68
2023/08/20 08:49:34;;;;;;;10.48;9.07;;;;;;;26.58;73.33;101350.03;6199285;23;20084;-69
2023/08/20 08:52:04;;;;;;;13.32;9.52;;;;;;;26.94;72.14;101324.53;6174291;23;20100;-67
2023/08/20 08:54:33;;;;;;;10.10;8.90;;;;;;;27.14;70.17;101284.56;6155905;23;20028;-68
2023/08/20 08:56:59;;;;;;;9.27;8.32;;;;;;;27.45;69.29;101295.41;6200824;23;20083;-67
2023/08/20 08:59:26;;;;;;;16.92;14.68;;;;;;;26.54;66.73;101075.91;6151148;23;20234;-67
2023/08/20 09:02:12;;;;;;;9.60;8.70;;;;;;;26.60;67.80;101181.09;6155143;23;20018;-68
2023/08/20 09:04:42;;;;;;;9.53;8.63;;;;;;;26.64;68.03;101189.63;6201843;23;20040;-70
2023/08/20 09:07:13;;;;;;;11.63;8.32;;;;;;;26.70;67.75;101209.66;6171190;23;20237;-69
2023/08/20 09:09:44;;;;;;;10.10;8.77;;;;;;;26.76;68.31;101211.66;6202564;23;20012;-69
2023/08/20 09:12:20;;;;;;;9.25;8.45;;;;;;;27.02;66.83;101227.53;6139482;23;20020;-69
2023/08/20 09:14:51;;;;;;;8.55;7.75;;;;;;;27.27;66.16;101231.00;6200248;23;20024;-68
2023/08/20 09:17:21;;;;;;;9.82;8.98;;;;;;;27.22;65.00;101144.41;6171793;23;20032;-67
2023/08/20 09:19:47;;;;;;;9.32;8.43;;;;;;;27.00;64.95;101124.50;6196595;23;20571;-68
2023/08/20 09:22:15;;;;;;;9.55;8.70;;;;;;;27.26;64.91;101186.19;6201399;23;20024;-68
2023/08/20 09:24:45;;;;;;;10.48;9.07;;;;;;;26.94;65.59;101200.63;6205497;23;20092;-68
2023/08/20 09:27:13;;;;;;;8.88;8.07;;;;;;;27.33;66.02;101238.38;6200327;23;20052;-68
2023/08/20 09:29:46;;;;;;;8.82;8.02;;;;;;;27.71;64.02;101203.41;6204274;23;20138;-69
2023/08/20 09:32:14;;;;;;;9.40;8.40;;;;;;;27.50;62.20;101115.09;6200634;23;20494;-68
2023/08/20 09:34:41;;;;;;;9.00;8.20;;;;;;;26.97;61.86;101017.13;6172679;23;20088;-69
2023/08/20 09:37:15;;;;;;;9.05;8.18;;;;;;;27.74;62.34;101170.66;6202476;23;20099;-68
2023/08/20 09:39:42;;;;;;;9.18;8.40;;;;;;;28.32;60.69;101160.19;6170085;23;20635;-69
2023/08/20 09:42:10;;;;;;;9.02;7.97;;;;;;;27.91;59.46;101019.50;6202461;23;20016;-71
2023/08/20 09:44:40;;;;;;;12.32;8.50;;;;;;;28.54;59.08;101122.50;6201344;23;20043;-68
2023/08/20 09:47:11;;;;;;;8.82;8.05;;;;;;;29.02;59.33;101198.53;6200918;23;20049;-69
2023/08/20 09:49:39;;;;;;;8.00;7.40;;;;;;;29.11;58.50;101147.94;6200922;23;20038;-69
2023/08/20 09:52:08;;;;;;;10.40;8.30;;;;;;;29.67;57.16;101149.94;6204307;23;20524;-69
2023/08/20 09:54:51;;;;;;;9.05;8.13;;;;;;;29.87;56.43;101156.41;6204077;23;20038;-69
2023/08/20 09:57:26;;;;;;;8.13;7.38;;;;;;;29.69;54.87;101105.44;6201674;23;20024;-69
2023/08/20 09:59:54;;;;;;;8.05;7.45;;;;;;;28.65;55.74;101049.13;6197636;23;20386;-69
2023/08/20 10:02:21;;;;;;;7.65;6.97;;;;;;;29.16;54.55;101069.81;6201725;23;20035;-68
2023/08/20 10:04:49;;;;;;;8.43;7.00;;;;;;;28.93;56.38;101141.06;6173263;23;20470;-68
2023/08/20 10:07:16;;;;;;;8.02;7.43;;;;;;;28.76;55.93;101062.09;6201734;23;20074;-69
2023/08/20 10:09:45;;;;;;;9.15;7.10;;;;;;;27.40;55.32;100915.91;6166052;23;20040;-69
2023/08/20 10:12:13;;;;;;;8.85;8.05;;;;;;;27.72;56.15;101037.03;6172266;23;20643;-69
2023/08/20 10:14:41;;;;;;;8.30;7.60;;;;;;;27.51;57.65;101099.78;6200865;23;20158;-68
2023/08/20 10:17:12;;;;;;;8.40;7.50;;;;;;;27.45;58.67;101133.69;6197264;23;20043;-69
2023/08/20 10:19:38;;;;;;;8.73;7.93;;;;;;;27.73;58.53;101158.22;6178162;23;20025;-68
2023/08/20 10:22:06;;;;;;;8.68;7.88;;;;;;;27.79;57.82;101154.78;6202881;23;20024;-68
2023/08/20 10:24:51;;;;;;;8.52;7.70;;;;;;;28.20;58.78;101224.56;6174431;23;20780;-69
2023/08/20 10:27:31;;;;;;;9.15;7.70;;;;;;;27.68;58.14;101147.13;6199868;23;20095;-70
2023/08/20 10:30:01;;;;;;;10.77;7.85;;;;;;;27.91;59.53;101246.13;6196193;23;20039;-69
2023/08/20 10:32:48;;;;;;;8.18;7.22;;;;;;;28.19;59.10;101254.47;6200697;23;20014;-67
2023/08/20 10:35:17;;;;;;;8.80;8.00;;;;;;;28.09;59.36;101218.81;6200738;23;20039;-69
2023/08/20 10:38:07;;;;;;;9.18;8.23;;;;;;;28.09;58.47;101210.72;6196954;23;20035;-68
2023/08/20 10:40:52;;;;;;;8.75;7.88;;;;;;;27.84;58.28;101160.50;6202635;23;20485;-68
2023/08/20 10:43:39;;;;;;;8.32;7.72;;;;;;;27.74;58.97;101218.38;6199456;23;20086;-67
2023/08/20 10:46:16;;;;;;;8.93;8.15;;;;;;;28.00;57.09;101164.06;6199889;23;20038;-69
2023/08/20 10:48:48;;;;;;;8.52;7.93;;;;;;;28.35;55.90;101148.19;6196399;23;20040;-67
2023/08/20 10:51:24;;;;;;;8.50;7.88;;;;;;;28.77;56.53;101201.56;6199030;23;20004;-68
2023/08/20 10:54:00;;;;;;;8.48;7.88;;;;;;;29.30;55.85;101278.97;6175473;23;20151;-67
2023/08/20 10:56:47;;;;;;;9.10;8.20;;;;;;;29.18;54.46;101124.53;6206400;23;20012;-67
2023/08/20 10:59:27;;;;;;;8.70;7.90;;;;;;;29.08;53.57;101140.19;6180133;23;20028;-67
2023/08/20 11:01:56;;;;;;;8.98;8.18;;;;;;;29.97;52.57;101204.75;6174269;23;20021;-68
2023/08/20 11:04:32;;;;;;;8.60;7.75;;;;;;;30.00;52.16;101139.41;6176771;23;20028;-67
2023/08/20 11:07:00;;;;;;;8.65;7.80;;;;;;;30.10;51.24;101175.06;6176900;23;20008;-68
2023/08/20 11:09:30;;;;;;;8.43;7.72;;;;;;;29.97;52.25;101172.25;6201847;23;20038;-68
2023/08/20 11:11:58;;;;;;;9.30;8.50;;;;;;;29.01;53.11;101105.81;6203504;23;20031;-71
2023/08/20 11:14:24;;;;;;;8.13;7.32;;;;;;;28.84;54.64;101193.53;6203139;23;20589;-68
2023/08/20 11:16:51;;;;;;;8.43;7.65;;;;;;;28.56;54.75;101142.91;6173966;23;20027;-68
2023/08/20 11:19:22;;;;;;;8.68;7.97;;;;;;;28.87;56.37;101251.75;6175835;23;20616;-68
2023/08/20 11:21:50;;;;;;;8.38;7.68;;;;;;;28.64;57.23;101253.53;6203431;23;20031;-68
2023/08/20 11:24:20;;;;;;;8.57;7.88;;;;;;;28.62;57.00;101238.53;6208503;23;20080;-68
2023/08/20 11:26:49;;;;;;;9.38;8.55;;;;;;;28.42;55.76;101178.81;6173945;23;20050;-68